Terminal Aerodrome Forecast
Issued by NWS

Home | Current Version | Previous Version | Text Only | Print | Product List | Glossary On
Versions: 1 2 3 4 5 6 7 8 9 10 11 12 13 14 15 16 17 18 19 20 21
000
FTUS44 KHGX 191859 AAA
TAFLBX
TAF AMD
KLBX 191859Z 1919/2018 20006KT P6SM FEW050
      TEMPO 1919/1923 BKN025
     FM192300 21008KT P6SM BKN025
     FM200200 20004KT 4SM BR BKN010
     FM200600 VRB04KT 2SM BR OVC007
      TEMPO 2009/2012 1/2SM FG OVC002
     FM201500 22005KT 4SM BR BKN007 OVC012=

USA.gov is the U.S. government's official web portal to all federal, state and local government web resources and services.